Time;durP1;ratioP1;P1;durP2;ratioP2;P2;SDS_P1;SDS_P2;PMS_P1;PMS_P2;Temp;Humidity;BMP_temperature;BMP_pressure;BME280_temperature;BME280_humidity;BME280_pressure;Samples;Min_cycle;Max_cycle;Signal;HPM_P1;HPM_P2
2023/08/12 07:01:27;;;;;;;0.98;0.98;;;20.50;99.90;24.40;101237.00;;;;6169411;22;1458264;-67
2023/08/12 07:04:01;;;;;;;1.10;1.10;;;20.60;99.90;24.30;101229.00;;;;6165975;23;20224;-67
2023/08/12 07:06:30;;;;;;;1.10;1.10;;;20.50;99.90;24.50;101241.00;;;;6191385;23;20141;-67
2023/08/12 07:08:59;;;;;;;2.22;2.13;;;20.50;99.90;24.50;101227.00;;;;6165776;23;20234;-67
2023/08/12 07:11:28;;;;;;;1.20;1.20;;;20.60;99.90;24.20;101239.00;;;;6165992;23;20154;-66
2023/08/12 07:14:00;;;;;;;1.30;1.30;;;20.50;99.90;24.10;101245.00;;;;6165709;23;20213;-66
2023/08/12 07:16:28;;;;;;;1.50;1.50;;;20.20;99.90;24.10;101255.00;;;;6190734;23;20165;-66
2023/08/12 07:18:57;;;;;;;1.65;1.65;;;20.20;99.90;24.00;101252.00;;;;6165904;23;20196;-66
2023/08/12 07:21:23;;;;;;;1.50;1.50;;;20.10;99.90;23.70;101257.00;;;;6165710;23;20574;-66
2023/08/12 07:23:58;;;;;;;1.40;1.40;;;20.10;99.90;23.60;101257.00;;;;6190590;23;20201;-66
2023/08/12 07:26:30;;;;;;;1.60;1.60;;;19.90;99.90;24.00;101264.00;;;;6190788;23;20632;-66
2023/08/12 07:28:59;;;;;;;1.40;1.40;;;20.00;99.90;24.30;101245.00;;;;6190558;23;20189;-66
2023/08/12 07:31:25;;;;;;;1.45;1.45;;;20.20;99.90;24.50;101248.00;;;;6165519;23;20169;-66
2023/08/12 07:33:53;;;;;;;1.50;1.50;;;20.30;99.90;24.20;101245.00;;;;6190911;23;20193;-66
2023/08/12 07:36:19;;;;;;;1.58;1.58;;;20.40;99.90;24.60;101273.00;;;;6217523;23;20153;-66
2023/08/12 07:38:48;;;;;;;1.40;1.40;;;20.70;99.90;25.00;101274.00;;;;6190137;23;20575;-66
2023/08/12 07:41:17;;;;;;;2.20;1.85;;;20.80;99.90;23.80;101272.00;;;;6190130;23;20221;-66
2023/08/12 07:43:49;;;;;;;3.95;1.83;;;20.70;99.90;22.60;101287.00;;;;6165829;23;20169;-66
2023/08/12 07:46:21;;;;;;;1.10;1.10;;;20.00;99.90;23.60;101276.00;;;;6190505;23;20139;-66
2023/08/12 07:48:50;;;;;;;5.22;1.40;;;20.00;99.90;23.10;101279.00;;;;6166345;23;20567;-66
2023/08/12 07:51:16;;;;;;;1.30;1.30;;;20.10;99.90;24.00;101264.00;;;;6190046;23;20169;-66
2023/08/12 07:53:46;;;;;;;1.20;1.20;;;20.30;99.90;24.60;101243.00;;;;6190068;23;20170;-66
2023/08/12 07:56:12;;;;;;;1.67;1.45;;;20.60;99.90;22.80;101276.00;;;;6191047;23;20146;-66
2023/08/12 07:58:38;;;;;;;1.08;1.08;;;20.30;99.90;23.60;101275.00;;;;6190328;23;20142;-66
2023/08/12 08:01:04;;;;;;;1.10;1.10;;;20.20;99.90;25.20;101266.00;;;;6190416;23;20159;-66
2023/08/12 08:03:31;;;;;;;1.70;1.70;;;21.00;99.90;26.10;101292.00;;;;6190086;23;20390;-66
2023/08/12 08:06:05;;;;;;;1.80;1.80;;;21.80;99.90;26.00;101285.00;;;;6189548;23;20142;-66
2023/08/12 08:08:31;;;;;;;1.70;1.70;;;22.10;99.90;26.30;101321.00;;;;6216914;23;20220;-66
2023/08/12 08:11:05;;;;;;;1.30;1.30;;;22.30;99.90;24.80;101318.00;;;;6140465;23;20177;-66
2023/08/12 08:13:33;;;;;;;0.80;0.80;;;21.90;99.90;24.40;101316.00;;;;6190647;23;20170;-65
2023/08/12 08:15:59;;;;;;;1.27;1.27;;;21.20;99.90;24.50;101299.00;;;;6165830;23;20170;-66
2023/08/12 08:18:28;;;;;;;0.75;0.75;;;21.10;99.90;22.60;101285.00;;;;6165302;23;20154;-65
2023/08/12 08:20:54;;;;;;;0.85;0.82;;;20.30;99.90;22.80;101283.00;;;;6165454;23;20180;-65
2023/08/12 08:23:22;;;;;;;0.60;0.60;;;20.00;99.90;25.00;101290.00;;;;6165551;23;20545;-66
2023/08/12 08:25:54;;;;;;;4.68;3.88;;;20.70;99.90;23.20;101272.00;;;;6217101;23;20143;-66
2023/08/12 08:28:23;;;;;;;6.10;2.58;;;20.70;99.90;22.10;101268.00;;;;6190308;23;20142;-66
2023/08/12 08:30:49;;;;;;;6.45;3.20;;;20.10;99.90;23.10;101292.00;;;;6191213;23;20143;-66
2023/08/12 08:33:18;;;;;;;4.05;3.67;;;20.10;99.90;23.20;101309.00;;;;6165196;23;20617;-66
2023/08/12 08:35:49;;;;;;;5.05;2.95;;;20.50;99.90;23.20;101302.00;;;;6216650;23;20205;-66
2023/08/12 08:38:15;;;;;;;0.63;0.63;;;20.40;99.90;22.90;101292.00;;;;6165088;23;20582;-66
2023/08/12 08:40:42;;;;;;;3.65;3.33;;;20.30;99.90;23.30;101267.00;;;;6165142;23;20173;-65
2023/08/12 08:43:11;;;;;;;1.33;1.23;;;20.30;99.90;22.90;101304.00;;;;6189481;23;20146;-66
2023/08/12 08:45:46;;;;;;;7.53;1.85;;;20.40;99.90;23.60;101309.00;;;;6165686;23;20212;-66
2023/08/12 08:48:12;;;;;;;6.05;2.47;;;20.70;99.90;23.80;101309.00;;;;6189345;23;20160;-66
2023/08/12 08:50:45;;;;;;;8.73;1.60;;;21.10;99.90;24.80;101356.00;;;;6189828;23;20149;-66
2023/08/12 08:53:18;;;;;;;0.60;0.60;;;21.70;99.90;23.80;101350.00;;;;6165538;23;20579;-66
2023/08/12 08:55:45;;;;;;;0.60;0.60;;;21.50;99.90;24.00;101345.00;;;;6190402;23;20157;-66
2023/08/12 08:58:11;;;;;;;0.45;0.45;;;21.20;99.90;23.10;101340.00;;;;6189741;23;20153;-66
2023/08/12 09:00:39;;;;;;;0.30;0.30;;;20.90;99.90;25.00;101358.00;;;;6189802;23;20190;-66
2023/08/12 09:03:09;;;;;;;1.13;0.80;;;21.30;99.90;25.30;101368.00;;;;6189955;23;20189;-66
2023/08/12 09:05:36;;;;;;;0.20;0.20;;;21.90;99.90;24.20;101343.00;;;;6164849;23;20490;-66
2023/08/12 09:08:10;;;;;;;0.30;0.30;;;21.40;99.90;25.10;101368.00;;;;6189500;23;20161;-66
2023/08/12 09:10:40;;;;;;;3.40;0.85;;;21.50;99.90;23.70;101349.00;;;;6190170;23;20208;-66
2023/08/12 09:13:14;;;;;;;0.38;0.38;;;21.20;99.90;23.30;101347.00;;;;6190017;23;20249;-66
2023/08/12 09:15:44;;;;;;;1.45;1.33;;;21.00;99.90;24.30;101345.00;;;;6216155;23;20139;-65
2023/08/12 09:18:10;;;;;;;0.50;0.50;;;21.10;99.90;23.80;101350.00;;;;6216118;23;20170;-65
2023/08/12 09:20:36;;;;;;;0.28;0.28;;;21.10;99.90;22.90;101343.00;;;;6189450;23;20154;-65
2023/08/12 09:23:10;;;;;;;1.83;0.77;;;20.70;99.90;23.60;101352.00;;;;6164425;23;20154;-66
2023/08/12 09:25:41;;;;;;;0.28;0.28;;;20.80;99.90;25.20;101352.00;;;;6165543;23;20150;-66
2023/08/12 09:28:10;;;;;;;0.20;0.20;;;21.40;99.90;24.40;101355.00;;;;6216055;23;20139;-66
2023/08/12 09:30:41;;;;;;;0.47;0.47;;;21.30;99.90;24.50;101361.00;;;;6164895;23;20564;-66
2023/08/12 09:33:10;;;;;;;0.50;0.50;;;21.40;99.90;24.70;101370.00;;;;6189376;23;20170;-66
2023/08/12 09:35:41;;;;;;;0.13;0.13;;;21.70;99.90;24.40;101378.00;;;;6189785;23;20139;-66
2023/08/12 09:38:16;;;;;;;0.25;0.25;;;21.70;99.90;25.30;101365.00;;;;6189287;23;20257;-66
2023/08/12 09:40:47;;;;;;;1.88;1.67;;;21.80;99.90;23.30;101350.00;;;;6164766;23;20174;-66
2023/08/12 09:43:18;;;;;;;0.57;0.50;;;21.10;99.90;23.20;101284.00;;;;6164804;23;20154;-65
2023/08/12 09:45:45;;;;;;;0.28;0.28;;;21.10;99.90;24.20;101372.00;;;;6215986;23;20166;-66
2023/08/12 09:48:17;;;;;;;1.33;1.05;;;21.50;99.90;25.50;101385.00;;;;6189414;23;20143;-66
2023/08/12 09:50:43;;;;;;;0.10;0.10;;;22.20;99.90;25.00;101383.00;;;;6164840;23;20212;-66
2023/08/12 09:53:12;;;;;;;0.90;0.90;;;22.40;99.90;24.70;101355.00;;;;6189219;23;20507;-66
2023/08/12 09:55:40;;;;;;;0.10;0.10;;;22.10;99.90;26.30;101389.00;;;;6164500;23;20154;-66
2023/08/12 09:58:11;;;;;;;0.10;0.10;;;22.70;99.90;28.40;101407.00;;;;6189474;23;20173;-64
2023/08/12 10:00:46;;;;;;;0.20;0.20;;;23.90;99.90;29.50;101399.00;;;;6189333;23;20232;-66
2023/08/12 10:03:16;;;;;;;1.52;0.90;;;25.00;99.90;25.30;101359.00;;;;6163820;23;20668;-66
2023/08/12 10:05:48;;;;;;;0.10;0.10;;;23.40;99.90;26.70;101390.00;;;;6189699;23;20613;-65
2023/08/12 10:08:15;;;;;;;1.23;0.63;;;23.20;99.90;25.70;101358.00;;;;6215653;23;20146;-66
2023/08/12 10:10:50;;;;;;;0.32;0.32;;;23.20;99.90;24.90;101366.00;;;;6189207;23;20495;-65
2023/08/12 10:13:17;;;;;;;0.63;0.43;;;22.60;99.90;25.20;101357.00;;;;6164697;23;20174;-66
2023/08/12 10:15:49;;;;;;;0.10;0.10;;;22.80;99.90;26.10;101384.00;;;;6189439;23;20146;-66
2023/08/12 10:18:18;;;;;;;1.15;0.73;;;22.60;99.90;25.60;101379.00;;;;6164064;23;20224;-66
2023/08/12 10:20:45;;;;;;;9.60;1.73;;;22.60;99.90;25.90;101356.00;;;;6164623;23;20154;-66
2023/08/12 10:33:30;;;;;;;1.17;0.70;;;23.10;99.90;26.20;101393.00;;;;5090696;28;20900;-64
2023/08/12 10:35:56;;;;;;;0.73;0.73;;;23.70;99.90;27.10;101394.00;;;;5085267;28;20197;-64
2023/08/12 10:38:28;;;;;;;0.45;0.45;;;24.10;99.90;26.90;101388.00;;;;5069059;28;20551;-64
2023/08/12 10:41:21;;;;;;;0.73;0.57;;;24.20;99.90;28.60;101414.00;;;;5086123;28;20184;-64
2023/08/12 10:43:55;;;;;;;0.10;0.10;;;25.00;99.90;26.90;101388.00;;;;5069327;28;20185;-64
2023/08/12 10:46:35;;;;;;;0.20;0.20;;;24.30;99.90;27.00;101421.00;;;;5070242;28;20182;-64
2023/08/12 10:49:11;;;;;;;0.10;0.10;;;24.40;99.90;29.50;101429.00;;;;5064121;28;20181;-64
2023/08/12 10:51:48;;;;;;;0.10;0.10;;;25.00;99.90;30.00;101458.00;;;;5085686;28;20613;-64
2023/08/12 10:54:33;;;;;;;0.65;0.63;;;25.70;99.90;27.70;101494.00;;;;5086235;28;20602;-64
2023/08/12 10:57:11;;;;;;;0.70;0.70;;;24.90;99.90;27.40;101447.00;;;;5084711;28;20531;-64
2023/08/12 10:59:51;;;;;;;2.20;0.60;;;24.40;99.90;26.10;101400.00;;;;5065785;28;20262;-64
2023/08/12 11:02:34;;;;;;;2.30;1.10;;;23.60;99.90;27.20;101388.00;;;;5068408;28;20200;-64
2023/08/12 11:05:07;;;;;;;0.52;0.45;;;23.90;99.90;25.80;101391.00;;;;5052888;28;20605;-64
2023/08/12 11:07:43;;;;;;;0.10;0.10;;;23.40;99.90;29.40;101432.00;;;;5067905;28;20197;-67
2023/08/12 11:10:19;;;;;;;0.10;0.10;;;24.80;99.90;30.10;101456.00;;;;5070973;28;20659;-64
2023/08/12 11:12:51;;;;;;;0.40;0.20;;;25.70;99.90;29.70;101494.00;;;;5068911;28;20202;-64
2023/08/12 11:15:19;;;;;;;0.10;0.10;;;26.50;99.90;29.40;101472.00;;;;5065389;28;20190;-64
2023/08/12 11:17:48;;;;;;;1.10;0.45;;;25.90;99.90;27.40;101485.00;;;;5075310;28;20182;-64
2023/08/12 11:20:14;;;;;;;0.20;0.20;;;25.20;99.90;27.80;101445.00;;;;5063903;28;20228;-64
2023/08/12 11:22:46;;;;;;;1.52;0.73;;;24.90;99.90;29.40;101479.00;;;;5068438;28;20182;-64
2023/08/12 11:25:14;;;;;;;0.32;0.20;;;25.50;99.90;30.30;101485.00;;;;5084825;28;20186;-64
2023/08/12 11:27:48;;;;;;;0.20;0.20;;;26.00;99.90;31.80;101484.00;;;;5059519;28;20640;-64
2023/08/12 11:30:17;;;;;;;0.10;0.10;;;27.20;99.90;29.10;101522.00;;;;5069039;28;20192;-64
2023/08/12 11:32:54;;;;;;;1.05;0.65;;;26.60;99.90;29.40;101504.00;;;;5061124;28;20209;-64
2023/08/12 11:35:26;;;;;;;0.45;0.45;;;25.90;99.90;27.80;101505.00;;;;5084604;28;20181;-64
2023/08/12 11:37:57;;;;;;;0.10;0.10;;;25.00;99.90;30.00;101489.00;;;;5056230;28;20239;-64
2023/08/12 11:40:29;;;;;;;0.60;0.38;;;25.50;99.90;29.00;101505.00;;;;5055863;28;20655;-64
2023/08/12 11:42:55;;;;;;;0.30;0.30;;;25.90;99.90;29.40;101497.00;;;;5066885;28;20530;-64
2023/08/12 11:45:30;;;;;;;0.32;0.32;;;25.80;99.90;30.00;101494.00;;;;5070785;28;20182;-64
2023/08/12 11:48:04;;;;;;;0.75;0.75;;;26.00;99.90;29.50;101499.00;;;;5049408;28;20179;-64
2023/08/12 11:50:30;;;;;;;0.32;0.32;;;26.20;99.90;29.40;101510.00;;;;5048450;28;20574;-64
2023/08/12 11:52:58;;;;;;;0.68;0.68;;;25.80;99.90;27.90;101509.00;;;;5055414;28;20205;-63
2023/08/12 11:55:25;;;;;;;1.15;0.63;;;25.00;99.90;27.40;101521.00;;;;5052946;28;20178;-64
2023/08/12 11:57:52;;;;;;;1.55;0.70;;;25.00;99.90;27.10;101512.00;;;;5071112;28;20186;-64
2023/08/12 12:00:18;;;;;;;0.52;0.30;;;24.50;99.90;26.40;101483.00;;;;5054077;28;20192;-64
2023/08/12 12:02:56;;;;;;;9.32;1.65;;;24.00;99.90;28.00;101449.00;;;;5053917;28;20221;-64
2023/08/12 12:05:30;;;;;;;0.85;0.55;;;24.30;99.90;28.70;101468.00;;;;5070896;28;20709;-64
2023/08/12 12:08:05;;;;;;;0.10;0.10;;;24.80;99.90;29.30;101493.00;;;;5065515;28;20178;-64
2023/08/12 12:10:35;;;;;;;0.20;0.20;;;25.00;99.90;28.10;101504.00;;;;5066462;28;20193;-64
2023/08/12 12:13:11;;;;;;;1.02;0.90;;;24.90;99.90;26.80;101491.00;;;;5054077;28;20205;-64
2023/08/12 12:15:44;;;;;;;0.17;0.17;;;24.40;99.90;28.30;101490.00;;;;5067053;28;20573;-64
2023/08/12 12:18:12;;;;;;;1.05;0.90;;;24.80;99.90;28.80;101497.00;;;;5065214;28;20189;-65
2023/08/12 12:20:59;;;;;;;0.10;0.10;;;25.20;99.90;30.40;101490.00;;;;5050767;28;20187;-64
2023/08/12 12:23:37;;;;;;;0.10;0.10;;;25.60;99.90;28.40;101519.00;;;;5068126;28;20182;-64
2023/08/12 12:26:09;;;;;;;1.55;0.95;;;25.00;99.90;27.10;101501.00;;;;5051039;28;20189;-64
2023/08/12 12:28:35;;;;;;;0.77;0.77;;;24.20;99.90;27.60;101485.00;;;;5053304;28;20190;-64
2023/08/12 12:31:01;;;;;;;1.55;1.15;;;24.20;99.90;26.60;101488.00;;;;5053309;28;20178;-64
2023/08/12 12:33:27;;;;;;;0.55;0.55;;;23.90;99.90;25.50;101427.00;;;;5051304;28;20240;-64
2023/08/12 12:35:53;;;;;;;0.10;0.10;;;23.30;99.90;27.50;101442.00;;;;5061195;28;20198;-64
2023/08/12 12:38:19;;;;;;;2.55;1.55;;;23.60;99.90;26.50;101479.00;;;;5037230;28;20198;-64
2023/08/12 12:40:45;;;;;;;0.10;0.10;;;23.80;99.90;27.40;101465.00;;;;5070470;28;20193;-64
2023/08/12 12:43:17;;;;;;;0.30;0.30;;;23.80;99.90;27.10;101482.00;;;;5070078;28;20190;-64
2023/08/12 12:45:46;;;;;;;0.65;0.57;;;23.90;99.90;25.80;101458.00;;;;5053397;28;20652;-64
2023/08/12 12:48:20;;;;;;;3.50;2.22;;;23.30;99.90;26.80;101454.00;;;;5069796;28;20187;-64
2023/08/12 12:50:57;;;;;;;0.20;0.20;;;23.60;99.90;26.80;101454.00;;;;5064257;28;20229;-64
2023/08/12 12:53:28;;;;;;;0.40;0.40;;;23.60;99.90;27.50;101489.00;;;;5053113;28;20202;-65
2023/08/12 12:56:06;;;;;;;1.45;0.60;;;24.10;99.90;27.60;101517.00;;;;5052064;28;20190;-64
2023/08/12 12:58:40;;;;;;;3.25;0.65;;;24.40;99.90;26.40;101529.00;;;;5053051;28;20182;-64
2023/08/12 13:01:09;;;;;;;0.63;0.63;;;24.10;99.90;27.20;101514.00;;;;5054353;28;20249;-64
2023/08/12 13:03:40;;;;;;;0.30;0.22;;;24.00;99.90;27.00;101482.00;;;;5048492;28;20188;-64
2023/08/12 13:06:07;;;;;;;2.53;1.23;;;23.90;99.90;28.30;101510.00;;;;5047899;28;20683;-64
2023/08/12 13:08:38;;;;;;;8.80;0.50;;;24.50;99.90;26.90;101525.00;;;;5039525;28;20186;-64
2023/08/12 13:11:04;;;;;;;0.10;0.10;;;24.30;99.90;27.10;101491.00;;;;5069273;28;20190;-65
2023/08/12 13:13:35;;;;;;;0.43;0.13;;;24.00;99.90;28.50;101506.00;;;;5062761;28;20191;-65
2023/08/12 13:16:02;;;;;;;1.02;0.55;;;24.50;99.90;27.30;101532.00;;;;5059521;28;20607;-65
2023/08/12 13:18:31;;;;;;;0.20;0.20;;;24.60;99.90;27.30;101531.00;;;;5053638;28;20277;-65
2023/08/12 13:20:57;;;;;;;0.65;0.65;;;24.60;99.90;27.80;101525.00;;;;5069963;28;20676;-65
2023/08/12 13:23:23;;;;;;;1.25;0.95;;;24.70;99.90;28.60;101525.00;;;;5060548;28;20197;-65
2023/08/12 13:25:54;;;;;;;9.77;1.27;;;25.10;99.90;28.90;101520.00;;;;5061624;28;20252;-65
2023/08/12 13:28:20;;;;;;;1.80;0.75;;;25.20;99.90;27.80;101541.00;;;;5069730;28;20182;-65
2023/08/12 13:30:54;;;;;;;0.30;0.30;;;25.10;99.90;27.80;101543.00;;;;5053641;28;20186;-65
2023/08/12 13:33:20;;;;;;;4.60;1.25;;;24.80;99.90;27.20;101546.00;;;;5038897;28;20272;-65
2023/08/12 13:35:51;;;;;;;0.30;0.30;;;24.60;99.90;27.60;101543.00;;;;5063648;28;20190;-65
2023/08/12 13:38:18;;;;;;;0.35;0.35;;;24.50;99.90;27.30;101520.00;;;;5043091;28;20198;-65
2023/08/12 13:40:53;;;;;;;0.40;0.40;;;24.50;99.90;27.70;101558.00;;;;5052415;28;20174;-65
2023/08/12 13:43:19;;;;;;;3.00;0.30;;;24.70;99.90;27.40;101532.00;;;;5060831;28;20198;-65
2023/08/12 13:45:50;;;;;;;0.25;0.25;;;24.40;99.90;28.20;101556.00;;;;5068449;28;20186;-65
2023/08/12 13:48:16;;;;;;;1.90;0.70;;;24.70;99.90;27.30;101552.00;;;;5058856;28;20266;-65
2023/08/12 13:50:49;;;;;;;0.65;0.57;;;24.60;99.90;27.80;101550.00;;;;5068921;28;20273;-65
2023/08/12 13:53:21;;;;;;;2.90;0.77;;;24.60;99.90;28.70;101530.00;;;;5067155;28;20194;-65
2023/08/12 13:55:52;;;;;;;7.53;0.88;;;25.10;99.90;29.10;101507.00;;;;5052846;28;20186;-65
2023/08/12 13:58:17;;;;;;;0.50;0.50;;;25.60;99.90;27.60;101530.00;;;;5055191;28;20189;-65
2023/08/12 14:01:03;;;;;;;0.30;0.30;;;25.00;99.90;29.10;101514.00;;;;5063143;28;20182;-65
2023/08/12 14:03:52;;;;;;;2.45;0.40;;;25.20;99.90;27.80;101534.00;;;;5045467;28;20186;-65
2023/08/12 14:06:25;;;;;;;1.10;1.10;;;25.00;99.90;28.20;101514.00;;;;5065589;28;20182;-65
2023/08/12 14:11:43;;;;;;;0.30;0.30;;;24.90;99.90;29.10;101493.00;;;;5042256;28;20210;-65
2023/08/12 14:14:09;;;;;;;0.57;0.40;;;25.30;99.90;28.00;101511.00;;;;5037031;28;20317;-65
2023/08/12 14:16:36;;;;;;;3.30;1.23;;;25.20;99.90;29.00;101496.00;;;;5048452;28;20640;-65
2023/08/12 14:19:20;;;;;;;0.82;0.70;;;25.20;99.90;27.70;101528.00;;;;5035596;28;20185;-65
2023/08/12 14:21:47;;;;;;;1.95;0.30;;;24.60;99.90;28.60;101490.00;;;;5052124;28;20542;-65
2023/08/12 14:24:13;;;;;;;4.10;1.55;;;24.60;99.90;28.20;101518.00;;;;5068360;28;20218;-65
2023/08/12 14:26:47;;;;;;;1.42;1.40;;;24.70;99.90;27.80;101505.00;;;;5068768;28;20260;-65
2023/08/12 14:29:31;;;;;;;1.90;1.75;;;24.70;99.90;27.70;101522.00;;;;5064977;28;20197;-65
2023/08/12 14:31:57;;;;;;;1.00;0.30;;;24.80;99.90;27.60;101535.00;;;;5068242;28;20218;-65
2023/08/12 14:34:32;;;;;;;2.10;0.82;;;24.60;99.90;27.90;101500.00;;;;5054776;28;20201;-65
2023/08/12 14:37:04;;;;;;;0.65;0.28;;;24.90;99.90;28.30;101503.00;;;;5058395;28;20194;-65
2023/08/12 14:39:35;;;;;;;3.78;1.38;;;24.90;99.90;27.30;101541.00;;;;5068076;28;20693;-65
2023/08/12 14:47:03;;;;;;;1.10;0.68;;;24.60;99.90;28.30;101523.00;;;;5065759;28;20240;-65
2023/08/12 14:49:30;;;;;;;0.35;0.35;;;24.80;99.90;28.60;101520.00;;;;5041170;28;20189;-65
2023/08/12 14:51:56;;;;;;;5.65;1.73;;;24.80;99.90;27.70;101529.00;;;;5053428;28;20197;-65
2023/08/12 14:54:23;;;;;;;0.75;0.28;;;24.90;99.90;27.10;101528.00;;;;5036740;28;20186;-65
2023/08/12 14:56:49;;;;;;;0.10;0.10;;;24.50;99.90;28.60;101521.00;;;;5071856;28;20189;-65
2023/08/12 14:59:18;;;;;;;0.70;0.50;;;24.70;99.90;27.20;101537.00;;;;5071622;28;20602;-65
2023/08/12 15:01:45;;;;;;;0.13;0.13;;;24.40;99.90;28.30;101519.00;;;;5063059;28;20197;-65
2023/08/12 15:04:11;;;;;;;1.95;1.15;;;24.60;99.90;27.60;101514.00;;;;5071892;28;20178;-65
2023/08/12 15:06:42;;;;;;;1.83;0.65;;;24.70;99.90;28.00;101522.00;;;;5071614;28;20596;-65
2023/08/12 15:09:09;;;;;;;1.85;1.02;;;24.70;99.90;28.20;101516.00;;;;5054924;28;20205;-65
2023/08/12 15:11:36;;;;;;;4.00;1.17;;;24.90;99.90;28.30;101488.00;;;;5071391;28;20255;-65
2023/08/12 15:14:22;;;;;;;0.28;0.25;;;24.90;99.90;28.50;101508.00;;;;5072055;28;20193;-65
2023/08/12 15:16:49;;;;;;;0.85;0.85;;;25.00;99.90;28.30;101494.00;;;;5037561;28;20184;-65
2023/08/12 15:19:15;;;;;;;1.40;0.85;;;25.30;99.90;28.30;101488.00;;;;5074883;28;20181;-65
2023/08/12 15:21:51;;;;;;;5.68;1.10;;;25.00;99.90;28.80;101510.00;;;;5076158;28;20182;-65
2023/08/12 15:24:17;;;;;;;4.30;0.95;;;25.10;99.90;28.20;101509.00;;;;5075239;28;20189;-65
2023/08/12 15:26:43;;;;;;;0.10;0.10;;;24.90;99.90;28.50;101514.00;;;;5041892;28;20190;-65
2023/08/12 15:29:09;;;;;;;0.70;0.52;;;24.80;99.90;27.60;101520.00;;;;5058155;28;20212;-65
2023/08/12 15:31:37;;;;;;;3.75;0.73;;;24.70;99.90;27.40;101533.00;;;;5074789;28;20190;-65
2023/08/12 15:34:23;;;;;;;2.47;0.93;;;24.60;99.90;26.90;101546.00;;;;5071337;28;20272;-65
2023/08/12 15:36:54;;;;;;;1.17;0.73;;;24.40;99.90;27.60;101538.00;;;;5058307;28;20623;-65
2023/08/12 15:39:38;;;;;;;2.85;0.50;;;24.40;99.90;27.20;101522.00;;;;5057175;28;20242;-65
2023/08/12 15:42:04;;;;;;;0.10;0.10;;;24.30;99.90;28.40;101512.00;;;;5074750;28;20232;-65
2023/08/12 15:44:30;;;;;;;0.10;0.10;;;24.50;99.90;28.80;101513.00;;;;5075090;28;20647;-65
2023/08/12 15:46:56;;;;;;;0.28;0.22;;;24.60;99.90;28.10;101526.00;;;;5056479;28;20193;-65
2023/08/12 15:49:24;;;;;;;0.10;0.10;;;24.80;99.90;27.50;101536.00;;;;5071547;28;20268;-65
2023/08/12 15:51:50;;;;;;;0.40;0.40;;;24.50;99.90;27.00;101528.00;;;;5057759;28;20667;-65
2023/08/12 15:54:16;;;;;;;0.47;0.47;;;24.40;99.90;27.70;101519.00;;;;5074428;28;20174;-65
2023/08/12 15:56:43;;;;;;;0.43;0.43;;;24.50;99.90;27.80;101531.00;;;;5058103;28;20181;-65
2023/08/12 15:59:23;;;;;;;2.92;1.27;;;24.60;99.90;28.00;101525.00;;;;5059563;28;20174;-65
2023/08/12 16:01:49;;;;;;;0.65;0.52;;;24.70;99.90;27.70;101497.00;;;;5035817;28;20188;-66
2023/08/12 16:04:15;;;;;;;0.10;0.10;;;24.80;99.90;28.10;101519.00;;;;5057219;28;20269;-66
2023/08/12 16:06:48;;;;;;;0.10;0.10;;;24.60;99.90;28.80;101512.00;;;;5057774;28;20543;-65
2023/08/12 16:09:14;;;;;;;2.80;1.02;;;24.70;99.90;27.70;101533.00;;;;5071754;28;20190;-65
2023/08/12 16:11:40;;;;;;;1.17;0.70;;;24.80;99.90;28.00;101537.00;;;;5074075;28;20263;-65
2023/08/12 16:14:07;;;;;;;0.73;0.65;;;24.60;99.90;27.30;101556.00;;;;5074200;28;20539;-65
2023/08/12 16:16:33;;;;;;;0.10;0.10;;;24.40;99.90;27.80;101529.00;;;;5074193;28;20193;-65
2023/08/12 16:18:59;;;;;;;1.75;0.73;;;24.30;99.90;26.90;101565.00;;;;5074063;28;20185;-65
2023/08/12 16:21:29;;;;;;;0.32;0.32;;;24.20;99.90;28.20;101542.00;;;;5057153;28;20300;-65
2023/08/12 16:23:55;;;;;;;2.15;1.02;;;24.30;99.90;27.70;101523.00;;;;5057843;28;20177;-65
2023/08/12 16:29:52;;;;;;;6.18;1.90;;;24.70;99.90;28.60;101526.00;;;;5064696;28;20185;-65
2023/08/12 16:32:21;;;;;;;0.45;0.40;;;24.60;99.90;27.60;101545.00;;;;5040367;28;20204;-65
2023/08/12 16:34:47;;;;;;;0.10;0.10;;;24.50;99.90;28.90;101525.00;;;;5071626;28;20190;-65
2023/08/12 16:37:13;;;;;;;0.45;0.45;;;24.70;99.90;27.40;101547.00;;;;5073969;28;20182;-65
2023/08/12 16:39:45;;;;;;;0.15;0.15;;;24.40;99.90;28.00;101541.00;;;;5040330;28;20178;-65
2023/08/12 16:42:24;;;;;;;0.63;0.63;;;24.30;99.90;27.00;101555.00;;;;5055599;28;20181;-65
2023/08/12 16:44:53;;;;;;;0.38;0.38;;;24.00;99.90;27.80;101548.00;;;;5066273;28;20706;-65
2023/08/12 16:47:21;;;;;;;0.10;0.10;;;24.20;99.90;27.80;101562.00;;;;5056713;28;20193;-65
2023/08/12 16:49:47;;;;;;;0.10;0.10;;;24.10;99.90;26.50;101580.00;;;;5039974;28;20269;-65
2023/08/12 16:52:22;;;;;;;3.08;1.17;;;23.80;99.90;26.70;101538.00;;;;5070188;28;20304;-65
2023/08/12 16:54:55;;;;;;;6.20;1.45;;;23.70;99.90;27.00;101570.00;;;;5028200;28;20667;-65
2023/08/12 16:57:21;;;;;;;3.72;0.50;;;23.80;99.90;26.60;101544.00;;;;5054657;28;20632;-65
2023/08/12 17:00:02;;;;;;;0.55;0.55;;;23.80;99.90;26.70;101578.00;;;;5039999;28;20189;-65
2023/08/12 17:02:28;;;;;;;1.75;1.17;;;23.60;99.90;27.30;101539.00;;;;5057123;28;20260;-65
2023/08/12 17:04:58;;;;;;;4.75;3.70;;;23.70;99.90;27.70;101555.00;;;;5073032;28;20193;-65
2023/08/12 17:07:26;;;;;;;3.83;1.30;;;23.80;99.90;26.80;101568.00;;;;5056548;28;20188;-65
2023/08/12 17:09:52;;;;;;;3.42;0.57;;;23.90;99.90;26.30;101575.00;;;;5072865;28;20660;-65
2023/08/12 17:12:18;;;;;;;0.90;0.90;;;23.60;99.90;26.50;101550.00;;;;5072929;28;20254;-64
2023/08/12 17:14:44;;;;;;;2.50;1.02;;;23.50;99.90;26.40;101572.00;;;;5072493;28;20272;-65
2023/08/12 17:17:10;;;;;;;0.43;0.40;;;23.40;99.90;27.30;101555.00;;;;5055792;28;20184;-65
2023/08/12 17:19:38;;;;;;;0.82;0.80;;;23.70;99.90;25.90;101579.00;;;;5070189;28;20178;-64
2023/08/12 17:22:05;;;;;;;0.60;0.60;;;23.40;99.90;26.50;101577.00;;;;5073254;28;20172;-65
2023/08/12 17:24:33;;;;;;;0.40;0.40;;;23.40;99.90;26.60;101570.00;;;;5055252;28;20201;-65
2023/08/12 17:27:02;;;;;;;2.05;1.00;;;23.30;99.90;27.20;101566.00;;;;5072589;28;20211;-65
2023/08/12 17:29:28;;;;;;;1.85;0.40;;;23.50;99.90;27.90;101523.00;;;;5069821;28;20186;-65
2023/08/12 17:32:03;;;;;;;0.10;0.10;;;23.80;99.90;26.80;101568.00;;;;5073454;28;20856;-65
2023/08/12 17:34:36;;;;;;;0.10;0.10;;;23.80;99.90;26.90;101572.00;;;;5055871;28;20230;-65
2023/08/12 17:37:05;;;;;;;1.08;0.40;;;23.50;99.90;26.50;101574.00;;;;5072798;28;20170;-65
2023/08/12 17:39:31;;;;;;;1.52;0.63;;;23.40;99.90;26.50;101581.00;;;;5055857;28;20647;-65
2023/08/12 17:41:57;;;;;;;2.78;2.28;;;23.20;99.90;26.50;101577.00;;;;5052143;28;20182;-65
2023/08/12 17:44:23;;;;;;;2.05;1.15;;;23.20;99.90;26.30;101554.00;;;;5051475;28;20661;-64
2023/08/12 17:46:55;;;;;;;0.22;0.22;;;23.20;99.90;26.40;101584.00;;;;5068527;28;20194;-64
2023/08/12 17:49:22;;;;;;;2.85;2.65;;;23.10;99.90;26.30;101559.00;;;;5070407;28;20238;-65
2023/08/12 17:51:49;;;;;;;1.10;0.82;;;23.00;99.90;26.40;101582.00;;;;5072443;28;20215;-65
2023/08/12 17:54:15;;;;;;;0.30;0.30;;;23.00;99.90;25.50;101603.00;;;;5054530;28;20236;-65
2023/08/12 17:56:41;;;;;;;3.72;0.65;;;22.80;99.90;25.70;101606.00;;;;5065691;28;20178;-65
2023/08/12 17:59:07;;;;;;;2.15;1.95;;;22.70;99.90;25.90;101599.00;;;;5054180;28;20178;-65
2023/08/12 18:01:33;;;;;;;2.05;1.85;;;22.80;99.90;27.00;101591.00;;;;5069659;28;20182;-65
2023/08/12 18:04:05;;;;;;;1.83;1.25;;;23.00;99.90;26.40;101599.00;;;;5054112;28;20209;-65
2023/08/12 18:06:32;;;;;;;0.20;0.20;;;22.90;99.90;25.30;101624.00;;;;5072482;28;20216;-64
2023/08/12 18:08:58;;;;;;;0.75;0.43;;;22.50;99.90;26.00;101584.00;;;;5072139;28;20251;-65
2023/08/12 18:11:26;;;;;;;0.10;0.10;;;22.50;99.90;26.20;101599.00;;;;5039253;28;20169;-65
2023/08/12 18:13:54;;;;;;;0.10;0.10;;;22.50;99.90;26.20;101604.00;;;;5071902;28;20235;-65
2023/08/12 18:16:20;;;;;;;2.67;0.38;;;22.60;99.90;26.10;101607.00;;;;5073240;28;20186;-65
2023/08/12 18:19:07;;;;;;;1.15;0.45;;;22.60;99.90;25.60;101618.00;;;;5072386;28;20170;-66
2023/08/12 18:21:44;;;;;;;6.10;1.75;;;22.40;99.90;25.60;101620.00;;;;5072240;28;20177;-65